Strona główna
METAR-TAF:

METAR-TAF

Lotnisko :

Hallock Municipal Airport

Hallock, Minnesota, Stany Zjednoczone

Szerokość geograficzna: 48-45-10N, Długość geograficzna: 096-56-35W, wysokość: 250 m

Aktualna obserwacja pogody

Raport powstał 16 minut temu, godzina 00:19 UTC
Wiatr 5 kt od południowo-południowy zachód
Temperatura 24°C
Wilgotność 74%
Ciśnienie 1020 hPa
Widzialność: 16.1 km
bezchmurnie

METAR: KHCO 240019Z AUTO 20005KT 10SM CLR 24/19 A3013 RMK AO2

czas: 19:35 (00:35 UTC)


TAF: brakujący

Obserwacja i prognoza pogody dla ponad 4000 lotnisk (raport METAR i TAF).

Dostępne stacje oznaczono żółtymi i czerwonymi punktami na mapie.

Najedź kursorem aby zobaczyć nazwę stacji.

Kliknij aby zobaczyć obserwacje i prognozy pogody.

Aby zmienić mapę: kliknij na zielony przycisk z czarnym krzyżykiem, aby powiększyć; na zielony przycisk z myślnikiem, aby pomniejszyć; na zielone strzałki, aby przejść do map sąsiednich.


METAR-TAF: